Decoded METAR Reports


Created by using MetarWeather

Station Name Location Elevation Time Temperature Dew Point RH Heat Index Wind Visibility Pressure Sky Condition Weather Remarks METAR
Alexandroupolis  40.85N 25.92E  3m  02/08/2015 10:20:00  27.0C  19.0C  62%  28.2C  19 km/h, NNE (20 degrees)  > 10000m  1016.9 mb  Few clouds at 760m
 
      LGAL 020720Z 02010KT 9999 FEW025 27/19 Q1017 
Andravida (Civ/A  37.92N 21.27E  12m  02/08/2015 10:20:00  33.0C  16.0C  36%  33.0C  Calm  > 10000m  1013.9 mb           LGAD 020720Z 00000KT CAVOK 33/16 Q1014 
Araxos (Civ/Afb)  38.17N 21.42E  15m  02/08/2015 10:20:00  33.0C  19.0C  44%  34.6C  20 km/h, NE (40 degrees)  > 10000m  1013.9 mb           LGRX 020720Z 04011KT CAVOK 33/19 Q1014 
Athens/Elef-Ven  37.93N 23.95E  94m  02/08/2015 10:20:00  29.0C  17.0C  48%  29.5C  35 km/h, N (10 degrees)  > 10000m  1015.9 mb  Few clouds at 910m
 
      LGAV 020720Z 01019KT 9999 FEW030 29/17 Q1016 NOSIG 
Chios Airport  38.32N 26.12E  4m  02/08/2015 09:50:00  27.0C  21.0C  70%  28.8C  17 km/h, NNE (20 degrees)  > 10000m  1011.9 mb           LGHI 020650Z 02009KT 320V080 CAVOK 27/21 Q1012 
Elefsis (Hel-Afb  38.07N 23.55E  31m  02/08/2015 10:20:00  31.0C  16.0C  41%  31.0C  28 km/h, 46 km/h gusts, N (350 degrees)  > 10000m  1014.9 mb           LGEL 020720Z 35015G25KT CAVOK 31/16 Q1015 
Ioannis Kapodist  39.60N 19.92E  2m  02/08/2015 10:20:00  32.0C  24.0C  63%  37.9C  Calm  > 10000m  1013.9 mb           LGKR 020720Z 00000KT CAVOK 32/24 Q1014 NOSIG 
Iraklion (Civ/Af  35.32N 25.17E  39m  02/08/2015 09:50:00  28.0C  23.0C  74%  31.3C  19 km/h, NNW (330 degrees)  > 10000m  1012.9 mb  Few clouds at 610m
 
      LGIR 020650Z 33010KT 9999 FEW020 28/23 Q1013 NOSIG 
Kalamata (Hel-Af  37.07N 22.02E  8m  02/08/2015 10:20:00  32.0C  16.0C  38%  32.0C  Calm  > 10000m  1013.9 mb           LGKL 020720Z 00000KT CAVOK 32/16 Q1014 
Karpathos  35.42N 27.15E  20m  02/08/2015 10:20:00  29.0C  23.0C  70%  32.8C  31 km/h, NW (310 degrees)  > 10000m  1010.2 mb  Few clouds at 490m
 
      LGKP 020720Z 31017KT 9999 FEW016 29/23 Q1010 
Kavala/Chrisoupo  40.92N 24.62E  5m  02/08/2015 10:20:00  26.0C  19.0C  65%  27.1C  15 km/h, E (100 degrees)  > 10000m  1017.9 mb  Few clouds at 910m
 
      LGKV 020720Z 10008KT 9999 FEW030 26/19 Q1018 
Kefallinia  38.12N 20.50E  18m  02/08/2015 09:50:00  30.0C  24.0C  70%  35.1C  Calm  > 10000m  1013.9 mb           LGKF 020650Z 00000KT CAVOK 30/24 Q1014 
Kos Airport  36.80N 27.08E  130m  02/08/2015 10:20:00  29.0C  20.0C  58%  30.8C  24 km/h, N (10 degrees)  > 10000m  1010.2 mb           LGKO 020720Z 01013KT CAVOK 29/20 Q1010 
Kozani (Civ/Army  40.28N 21.85E  630m  02/08/2015 09:50:00  26.0C  16.0C  54%  26.7C  Calm  > 10000m  1021.0 mb           LGKZ 020650Z 00000KT CAVOK 26/16 Q1021 
Limnos Island Ar  39.92N 25.23E  5m  02/08/2015 10:20:00  27.0C  20.0C  66%  28.5C  24 km/h, 43 km/h gusts, NE (40 degrees)  > 10000m  1016.9 mb           LGLM 020720Z 04013G23KT CAVOK 27/20 Q1017 
Mikonos Island  37.43N 25.35E  120m  02/08/2015 10:20:00  26.0C  21.0C  74%  27.4C  35 km/h, 54 km/h gusts, N (360 degrees)  > 10000m  1011.9 mb  Few clouds at 240m
 
      LGMK 020720Z 36019G29KT 9999 FEW008 26/21 Q1012 
Mitilini  39.05N 26.60E  17m  02/08/2015 10:20:00  29.0C  22.0C  66%  32.0C    > 10000m  1013.9 mb           LGMT 020720Z /////KT CAVOK 29/22 Q1014 
Paros  37.00N 25.07E  36m  02/08/2015 09:50:00  28.0C  20.0C  62%  29.7C  37 km/h, 56 km/h gusts, N (360 degrees)  > 10000m  1011.9 mb  Few clouds at 760m
 
      LGPA 020650Z 36020G30KT 9999 FEW025 28/20 Q1012 
Preveza/Aktion  38.62N 20.77E  4m  02/08/2015 10:20:00  32.0C  18.0C  43%  32.9C  15 km/h, ENE (60 degrees)  > 10000m  1013.9 mb           LGPZ 020720Z 06008KT CAVOK 32/18 Q1014 
Rhodes/Diagoras  36.40N 28.08E  5m  02/08/2015 10:20:00  29.0C  25.0C  79%  34.5C  11 km/h, W (270 degrees)  > 10000m  1009.1 mb  Few clouds at 760m
 
      LGRP 020720Z 27006KT 240V300 9999 FEW025 29/25 Q1009 NOSIG 
Samos Airport  37.68N 26.92E  6m  02/08/2015 10:20:00  30.0C  15.0C  40%  29.7C  22 km/h, NNE (30 degrees)  > 10000m  1010.8 mb           LGSM 020720Z 03012KT CAVOK 30/15 Q1011 
Santorini Island  36.40N 25.48E  40m  02/08/2015 10:20:00  28.0C  21.0C  66%  30.1C  28 km/h, NNW (340 degrees)  > 10000m  1011.9 mb           LGSR 020720Z 34015KT CAVOK 28/21 Q1012 
Skiathos Island  39.18N 23.50E  15m  02/08/2015 09:50:00  27.0C  22.0C  74%  29.2C    > 10000m  1016.9 mb  Few clouds at 550m
Scattered clouds at 760m
Broken clouds at 2400m
 
      LGSK 020650Z /////KT 9999 FEW018 SCT025 BKN080 27/22 Q1017 
Souda/Khania (Af  35.47N 24.12E  150m  02/08/2015 10:20:00  28.0C  21.0C  66%  30.1C  9 km/h, N (350 degrees)  > 10000m  1013.9 mb           LGSA 020720Z 35005KT CAVOK 28/21 Q1014 
Syros  37.42N 24.95E  72m  02/08/2015 09:50:00  27.0C  19.0C  62%  28.2C  26 km/h, N (350 degrees)  > 10000m  1012.9 mb  Few clouds at 610m
 
      LGSO 020650Z 35014KT 9999 FEW020 27/19 Q1013 
Thessaloniki/Mik  40.52N 22.97E  7m  02/08/2015 10:20:00  29.0C  21.0C  62%  31.4C  9 km/h, NW (310 degrees)  > 10000m  1017.9 mb  Few clouds at 910m
 
      LGTS 020720Z 31005KT 9999 FEW030 29/21 Q1018 NOSIG 
Zakinthos Airpor  37.75N 20.87E  3m  02/08/2015 10:20:00  32.0C  21.0C  52%  34.9C  15 km/h, NW (320 degrees)  > 10000m  1013.9 mb           LGZA 020720Z 32008KT CAVOK 32/21 Q1014